createdAt,value
2023-03-17T00:00:57.141Z,6.90
2023-03-17T00:03:59.768Z,7.40
2023-03-17T00:07:01.867Z,6.03
2023-03-17T00:10:04.033Z,7.68
2023-03-17T00:13:06.266Z,5.97
2023-03-17T00:16:13.149Z,6.77
2023-03-17T00:19:35.426Z,6.13
2023-03-17T00:22:37.409Z,6.70
2023-03-17T00:25:43.243Z,4.90
2023-03-17T00:28:45.465Z,6.93
2023-03-17T00:31:48.105Z,5.78
2023-03-17T00:34:50.124Z,7.60
2023-03-17T00:37:53.682Z,6.53
2023-03-17T00:40:55.829Z,6.53
2023-03-17T00:43:58.598Z,6.53
2023-03-17T00:47:01.604Z,6.90
2023-03-17T00:50:04.999Z,7.32
2023-03-17T00:53:10.972Z,7.05
2023-03-17T00:56:20.817Z,7.38
2023-03-17T00:59:26.181Z,6.57
2023-03-17T01:02:28.306Z,7.50
2023-03-17T01:05:30.447Z,7.03
2023-03-17T01:08:32.504Z,6.87
2023-03-17T01:11:35.107Z,6.72
2023-03-17T01:14:38.143Z,5.63
2023-03-17T01:17:40.811Z,5.20
2023-03-17T01:20:43.181Z,6.28
2023-03-17T01:23:45.191Z,5.28
2023-03-17T01:26:47.266Z,6.15
2023-03-17T01:29:52.261Z,6.63
2023-03-17T01:32:55.874Z,6.30
2023-03-17T01:35:57.995Z,6.25
2023-03-17T01:38:59.999Z,6.50
2023-03-17T01:42:02.068Z,6.68
2023-03-17T01:45:27.874Z,5.90
2023-03-17T01:48:31.611Z,6.67
2023-03-17T01:51:36.758Z,6.07
2023-03-17T01:54:48.400Z,6.82
2023-03-17T01:57:53.488Z,7.15
2023-03-17T02:00:56.204Z,6.55
2023-03-17T02:03:58.587Z,6.35
2023-03-17T02:07:02.644Z,6.78
2023-03-17T02:10:06.114Z,6.87
2023-03-17T02:13:10.641Z,7.63
2023-03-17T02:16:17.389Z,4.50
2023-03-17T02:19:22.124Z,5.97
2023-03-17T02:22:25.224Z,6.05
2023-03-17T02:25:28.724Z,7.85
2023-03-17T02:28:31.123Z,8.40
2023-03-17T02:31:33.582Z,7.22
2023-03-17T02:34:35.822Z,8.70
2023-03-17T02:37:39.424Z,9.93
2023-03-17T02:40:41.551Z,9.77
2023-03-17T02:43:43.683Z,9.90
2023-03-17T02:46:45.824Z,9.45
2023-03-17T02:49:47.999Z,10.40
2023-03-17T02:52:50.534Z,8.82
2023-03-17T02:55:52.540Z,9.57
2023-03-17T02:58:54.556Z,8.95
2023-03-17T03:01:56.718Z,8.35
2023-03-17T03:04:58.717Z,7.75
2023-03-17T03:08:01.058Z,8.75
2023-03-17T03:11:04.149Z,5.87
2023-03-17T03:14:07.054Z,7.40
2023-03-17T03:17:09.789Z,6.85
2023-03-17T03:20:12.971Z,7.20
2023-03-17T03:23:15.142Z,6.60
2023-03-17T03:26:17.191Z,8.10
2023-03-17T03:29:19.240Z,8.98
2023-03-17T03:32:21.244Z,8.32
2023-03-17T03:35:23.203Z,8.00
2023-03-17T03:38:26.187Z,6.45
2023-03-17T03:41:28.196Z,8.03
2023-03-17T03:44:30.330Z,7.93
2023-03-17T03:47:32.531Z,7.63
2023-03-17T03:50:34.555Z,6.73
2023-03-17T03:53:36.619Z,6.32
2023-03-17T03:56:38.621Z,9.45
2023-03-17T03:59:40.630Z,6.28
2023-03-17T04:02:45.154Z,8.00
2023-03-17T04:05:47.250Z,7.93
2023-03-17T04:08:49.804Z,8.00
2023-03-17T04:11:52.115Z,7.40
2023-03-17T04:14:54.219Z,7.60
2023-03-17T04:17:56.313Z,6.85
2023-03-17T04:20:58.340Z,7.07
2023-03-17T04:24:00.361Z,7.85
2023-03-17T04:27:04.217Z,6.88
2023-03-17T04:30:07.741Z,7.00
2023-03-17T04:33:09.860Z,7.07
2023-03-17T04:36:17.407Z,7.88
2023-03-17T04:39:19.551Z,8.52
2023-03-17T04:42:21.682Z,6.03
2023-03-17T04:45:23.722Z,7.28
2023-03-17T04:48:25.942Z,7.07
2023-03-17T04:51:28.019Z,7.50
2023-03-17T04:54:30.029Z,8.18
2023-03-17T04:57:32.070Z,8.45
2023-03-17T05:00:38.814Z,7.93
2023-03-17T05:03:40.899Z,7.68
2023-03-17T05:06:42.979Z,9.35
2023-03-17T05:09:45.066Z,6.75
2023-03-17T05:12:47.151Z,7.77
2023-03-17T05:15:50.130Z,8.40
2023-03-17T05:18:52.387Z,7.90
2023-03-17T05:21:54.533Z,7.00
2023-03-17T05:24:56.565Z,8.02
2023-03-17T05:27:58.785Z,7.80
2023-03-17T05:31:00.891Z,7.82
2023-03-17T05:34:03.368Z,8.88
2023-03-17T05:37:06.056Z,8.30
2023-03-17T05:40:08.438Z,8.77
2023-03-17T05:43:10.505Z,6.47
2023-03-17T05:46:12.577Z,5.15
2023-03-17T05:49:15.403Z,9.25
2023-03-17T05:52:17.466Z,7.20
2023-03-17T05:55:19.929Z,8.40
2023-03-17T05:58:22.193Z,6.47
2023-03-17T06:01:24.191Z,7.72
2023-03-17T06:04:26.546Z,7.95
2023-03-17T06:07:38.032Z,6.28
2023-03-17T06:10:50.675Z,8.75
2023-03-17T06:13:52.711Z,8.43
2023-03-17T06:16:55.232Z,7.15
2023-03-17T06:19:57.256Z,7.00
2023-03-17T06:23:04.437Z,7.63
2023-03-17T06:26:07.424Z,6.95
2023-03-17T06:29:10.315Z,7.60
2023-03-17T06:32:20.236Z,8.32
2023-03-17T06:35:23.444Z,9.15
2023-03-17T06:38:25.570Z,8.20
2023-03-17T06:41:27.746Z,10.15
2023-03-17T06:44:29.728Z,9.83
2023-03-17T06:47:32.183Z,11.80
2023-03-17T06:50:34.188Z,8.82
2023-03-17T06:53:36.398Z,9.07
2023-03-17T06:56:38.415Z,8.18
2023-03-17T06:59:40.505Z,9.27
2023-03-17T07:02:43.163Z,11.50
2023-03-17T07:05:45.147Z,10.40
2023-03-17T07:08:47.650Z,9.55
2023-03-17T07:11:49.756Z,10.52
2023-03-17T07:14:52.186Z,9.33
2023-03-17T07:17:54.391Z,10.95
2023-03-17T07:20:56.399Z,10.63
2023-03-17T07:23:58.483Z,9.77
2023-03-17T07:27:00.574Z,9.57
2023-03-17T07:30:04.824Z,10.60
2023-03-17T07:33:06.940Z,9.32
2023-03-17T07:36:10.594Z,10.60
2023-03-17T07:39:13.038Z,9.23
2023-03-17T07:42:15.862Z,9.00
2023-03-17T07:45:18.042Z,7.38
2023-03-17T07:48:20.061Z,8.10
2023-03-17T07:51:23.353Z,7.50
2023-03-17T07:54:27.165Z,7.50
2023-03-17T07:57:29.168Z,8.17
2023-03-17T08:00:32.180Z,7.63
2023-03-17T08:03:34.784Z,7.43
2023-03-17T08:06:37.399Z,6.65
2023-03-17T08:09:40.315Z,8.85
2023-03-17T08:12:42.767Z,7.50
2023-03-17T08:15:45.224Z,7.55
2023-03-17T08:18:48.166Z,9.18
2023-03-17T08:21:50.481Z,7.22
2023-03-17T08:24:52.483Z,6.90
2023-03-17T08:27:54.620Z,7.93
2023-03-17T08:31:06.599Z,6.70
2023-03-17T08:34:08.679Z,9.02
2023-03-17T08:37:11.661Z,7.82
2023-03-17T08:40:17.054Z,8.37
2023-03-17T08:43:19.125Z,6.93
2023-03-17T08:46:22.598Z,5.80
2023-03-17T08:49:24.711Z,6.00
2023-03-17T08:52:27.750Z,7.15
2023-03-17T08:55:29.844Z,7.17
2023-03-17T08:58:32.076Z,7.43
2023-03-17T09:01:34.814Z,6.53
2023-03-17T09:04:39.604Z,5.80
2023-03-17T09:07:42.205Z,5.53
2023-03-17T09:10:44.573Z,4.73
2023-03-17T09:13:47.570Z,5.77
2023-03-17T09:16:49.717Z,4.85
2023-03-17T09:19:51.720Z,5.47
2023-03-17T09:22:54.307Z,5.15
2023-03-17T09:25:57.277Z,6.17
2023-03-17T09:28:59.332Z,4.77
2023-03-17T09:32:01.651Z,4.68
2023-03-17T09:35:04.194Z,4.47
2023-03-17T09:38:07.064Z,4.15
2023-03-17T09:41:23.532Z,3.77
2023-03-17T09:44:43.833Z,3.00
2023-03-17T09:47:53.767Z,3.67
2023-03-17T09:50:57.571Z,4.20
2023-03-17T09:54:03.541Z,3.75
2023-03-17T09:57:22.230Z,3.70
2023-03-17T10:00:27.783Z,3.80
2023-03-17T10:03:29.824Z,4.32
2023-03-17T10:06:33.997Z,4.53
2023-03-17T10:09:42.815Z,4.30
2023-03-17T10:13:05.143Z,5.57
2023-03-17T10:16:09.891Z,4.10
2023-03-17T10:19:15.132Z,4.22
2023-03-17T10:22:27.683Z,4.18
2023-03-17T10:25:34.396Z,4.63
2023-03-17T10:28:38.857Z,4.07
2023-03-17T10:31:40.929Z,4.33
2023-03-17T10:34:43.854Z,4.40
2023-03-17T10:37:48.964Z,3.40
2023-03-17T10:40:58.905Z,4.03
2023-03-17T10:44:01.049Z,4.43
2023-03-17T10:47:03.709Z,3.30
2023-03-17T10:50:20.354Z,4.13
2023-03-17T10:53:29.652Z,4.03
2023-03-17T10:56:36.379Z,3.70
2023-03-17T10:59:44.379Z,3.70
2023-03-17T11:03:10.168Z,3.60
2023-03-17T11:06:17.127Z,3.90
2023-03-17T11:09:19.844Z,4.20
2023-03-17T11:12:26.558Z,3.90
2023-03-17T11:15:41.447Z,5.70
2023-03-17T11:18:43.516Z,4.37
2023-03-17T11:21:47.808Z,3.28
2023-03-17T11:24:59.343Z,5.05
2023-03-17T11:28:20.934Z,4.03
2023-03-17T11:31:29.952Z,4.37
2023-03-17T11:34:34.806Z,4.07
2023-03-17T11:37:54.804Z,3.67
2023-03-17T11:41:05.643Z,4.30
2023-03-17T11:44:30.721Z,4.40
2023-03-17T11:47:43.094Z,4.23
2023-03-17T11:50:50.601Z,4.47
2023-03-17T11:54:10.934Z,3.70
2023-03-17T11:57:17.405Z,3.95
2023-03-17T12:00:26.563Z,5.40
2023-03-17T12:03:38.834Z,4.30
2023-03-17T12:06:46.554Z,4.37
2023-03-17T12:09:57.144Z,3.95
2023-03-17T12:13:02.488Z,4.00
2023-03-17T12:16:15.769Z,4.18
2023-03-17T12:19:29.885Z,4.40
2023-03-17T12:22:34.751Z,4.40
2023-03-17T12:25:51.009Z,4.22
2023-03-17T12:28:57.452Z,4.47
2023-03-17T12:32:08.480Z,4.25
2023-03-17T12:35:26.740Z,4.00
2023-03-17T12:38:36.414Z,4.40
2023-03-17T12:41:53.922Z,4.35
2023-03-17T12:45:15.923Z,4.53
2023-03-17T12:48:21.463Z,3.97
2023-03-17T12:51:32.393Z,4.00
2023-03-17T12:54:36.604Z,4.20
2023-03-17T12:57:42.753Z,4.80
2023-03-17T13:00:50.731Z,3.80
2023-03-17T13:04:11.470Z,4.20
2023-03-17T13:07:18.265Z,4.47
2023-03-17T13:10:38.295Z,3.60
2023-03-17T13:13:43.596Z,4.38
2023-03-17T13:16:47.584Z,4.38
2023-03-17T13:19:55.619Z,5.55
2023-03-17T13:23:00.512Z,3.60
2023-03-17T13:26:03.058Z,3.80
2023-03-17T13:29:22.850Z,4.90
2023-03-17T13:32:24.919Z,4.22
2023-03-17T13:35:53.013Z,3.95
2023-03-17T13:39:18.284Z,4.37
2023-03-17T13:42:21.599Z,3.80
2023-03-17T13:45:35.822Z,4.78
2023-03-17T13:48:38.114Z,3.83
2023-03-17T13:51:46.585Z,3.50
2023-03-17T13:55:03.121Z,3.67
2023-03-17T13:58:06.682Z,3.10
2023-03-17T14:01:13.568Z,3.92
2023-03-17T14:04:18.259Z,3.17
2023-03-17T14:07:22.726Z,3.67
2023-03-17T14:10:26.244Z,3.07
2023-03-17T14:13:36.590Z,3.03
2023-03-17T14:16:47.118Z,3.38
2023-03-17T14:20:06.471Z,3.40
2023-03-17T14:23:09.281Z,4.28
2023-03-17T14:26:11.977Z,3.10
2023-03-17T14:29:15.829Z,3.57
2023-03-17T14:32:19.341Z,3.25
2023-03-17T14:35:21.680Z,3.65
2023-03-17T14:38:27.981Z,3.35
2023-03-17T14:41:31.227Z,3.37
2023-03-17T14:44:41.783Z,3.60
2023-03-17T14:47:43.886Z,3.45
2023-03-17T14:51:06.863Z,3.10
2023-03-17T14:54:16.760Z,3.03
2023-03-17T14:57:21.451Z,3.20
2023-03-17T15:00:38.213Z,3.40
2023-03-17T15:03:42.360Z,3.50
2023-03-17T15:06:52.641Z,3.90
2023-03-17T15:09:58.224Z,4.28
2023-03-17T15:13:01.707Z,9.17
2023-03-17T15:16:15.116Z,4.00
2023-03-17T15:19:20.041Z,3.75
2023-03-17T15:22:26.480Z,5.22
2023-03-17T15:25:31.512Z,4.25
2023-03-17T15:28:33.515Z,4.50
2023-03-17T15:31:35.505Z,4.07
2023-03-17T15:34:37.585Z,3.80
2023-03-17T15:37:39.619Z,3.33
2023-03-17T15:40:41.651Z,5.05
2023-03-17T15:43:43.713Z,3.87
2023-03-17T15:46:46.089Z,4.30
2023-03-17T15:49:49.086Z,4.72
2023-03-17T15:52:56.220Z,4.78
2023-03-17T15:55:58.453Z,4.18
2023-03-17T15:59:00.486Z,3.83
2023-03-17T16:02:02.705Z,3.97
2023-03-17T16:05:12.116Z,3.80
2023-03-17T16:08:14.824Z,5.43
2023-03-17T16:11:28.023Z,3.37
2023-03-17T16:14:30.219Z,3.72
2023-03-17T16:17:32.547Z,2.60
2023-03-17T16:20:41.819Z,3.20
2023-03-17T16:23:43.894Z,2.87
2023-03-17T16:26:45.916Z,2.97
2023-03-17T16:29:47.916Z,3.30
2023-03-17T16:32:50.059Z,84.55
2023-03-17T16:35:53.471Z,15.17
2023-03-17T16:38:55.648Z,12.25
2023-03-17T16:41:59.659Z,10.90
2023-03-17T16:45:01.708Z,9.07
2023-03-17T16:48:04.724Z,5.90
2023-03-17T16:51:07.138Z,6.35
2023-03-17T16:54:10.136Z,7.43
2023-03-17T16:57:12.905Z,10.53
2023-03-17T17:00:17.052Z,11.55
2023-03-17T17:03:19.437Z,14.52
2023-03-17T17:06:22.594Z,14.15
2023-03-17T17:09:24.723Z,15.20
2023-03-17T17:12:26.708Z,16.73
2023-03-17T17:15:29.397Z,18.98
2023-03-17T17:18:31.514Z,15.93
2023-03-17T17:21:33.995Z,13.73
2023-03-17T17:24:35.990Z,12.77
2023-03-17T17:27:39.159Z,20.73
2023-03-17T17:30:45.248Z,27.77
2023-03-17T17:33:47.365Z,24.98
2023-03-17T17:36:49.402Z,28.42
2023-03-17T17:39:53.437Z,27.80
2023-03-17T17:42:55.619Z,18.63
2023-03-17T17:45:57.622Z,13.68
2023-03-17T17:48:59.790Z,13.80
2023-03-17T17:52:01.771Z,19.98
2023-03-17T17:55:04.290Z,15.52
2023-03-17T17:58:06.374Z,15.43
2023-03-17T18:01:08.513Z,13.35
2023-03-17T18:04:10.777Z,14.00
2023-03-17T18:07:12.910Z,13.23
2023-03-17T18:10:16.686Z,13.82
2023-03-17T18:13:18.993Z,15.95
2023-03-17T18:16:21.038Z,16.80
2023-03-17T18:19:23.177Z,14.80
2023-03-17T18:22:25.472Z,14.60
2023-03-17T18:25:28.222Z,13.27
2023-03-17T18:28:30.831Z,10.33
2023-03-17T18:31:36.290Z,11.65
2023-03-17T18:34:43.487Z,10.98
2023-03-17T18:37:45.711Z,11.23
2023-03-17T18:40:47.773Z,13.10
2023-03-17T18:43:49.827Z,15.25
2023-03-17T18:46:52.190Z,17.75
2023-03-17T18:49:54.188Z,17.73
2023-03-17T18:52:56.679Z,18.85
2023-03-17T18:55:59.986Z,18.92
2023-03-17T18:59:02.097Z,20.50
2023-03-17T19:02:04.316Z,23.50
2023-03-17T19:05:07.575Z,23.73
2023-03-17T19:08:09.582Z,29.25
2023-03-17T19:11:13.583Z,31.48
2023-03-17T19:14:15.575Z,27.35
2023-03-17T19:17:18.280Z,25.17
2023-03-17T19:20:20.322Z,25.27
2023-03-17T19:23:22.667Z,26.70
2023-03-17T19:26:24.649Z,27.10
2023-03-17T19:29:27.869Z,23.47
2023-03-17T19:32:29.972Z,25.92
2023-03-17T19:35:32.570Z,27.05
2023-03-17T19:38:34.717Z,32.38
2023-03-17T19:41:37.174Z,30.20
2023-03-17T19:44:39.501Z,24.65
2023-03-17T19:47:41.563Z,21.98
2023-03-17T19:50:43.672Z,20.73
2023-03-17T19:53:45.760Z,28.83
2023-03-17T19:56:47.741Z,31.10
2023-03-17T19:59:49.832Z,41.63
2023-03-17T20:02:51.797Z,35.15
2023-03-17T20:05:54.058Z,36.63
2023-03-17T20:08:56.115Z,37.45
2023-03-17T20:11:59.000Z,33.45
2023-03-17T20:15:01.640Z,28.02
2023-03-17T20:18:04.006Z,22.58
2023-03-17T20:21:06.732Z,31.70
2023-03-17T20:24:11.057Z,35.88
2023-03-17T20:27:15.438Z,35.40
2023-03-17T20:30:17.623Z,23.17
2023-03-17T20:33:19.743Z,19.73
2023-03-17T20:36:22.819Z,17.75
2023-03-17T20:39:24.847Z,19.75
2023-03-17T20:42:26.816Z,21.95
2023-03-17T20:45:29.444Z,26.83
2023-03-17T20:48:32.851Z,27.30
2023-03-17T20:51:35.623Z,29.43
2023-03-17T20:54:38.955Z,30.90
2023-03-17T20:57:42.006Z,29.77
2023-03-17T21:00:44.742Z,39.30
2023-03-17T21:03:47.304Z,33.30
2023-03-17T21:06:49.823Z,40.30
2023-03-17T21:09:52.056Z,38.95
2023-03-17T21:12:54.030Z,39.55
2023-03-17T21:15:56.871Z,47.92
2023-03-17T21:18:59.113Z,30.90
2023-03-17T21:22:01.337Z,33.13
2023-03-17T21:25:08.768Z,26.98
2023-03-17T21:28:11.327Z,26.15
2023-03-17T21:31:14.903Z,39.57
2023-03-17T21:34:16.967Z,33.67
2023-03-17T21:37:18.937Z,35.05
2023-03-17T21:40:21.622Z,25.65
2023-03-17T21:43:24.425Z,24.17
2023-03-17T21:46:26.574Z,28.85
2023-03-17T21:49:28.686Z,22.92
2023-03-17T21:52:31.128Z,28.00
2023-03-17T21:55:33.256Z,28.15
2023-03-17T21:58:35.320Z,31.27
2023-03-17T22:01:39.020Z,29.57
2023-03-17T22:04:41.723Z,25.15
2023-03-17T22:07:43.938Z,28.55
2023-03-17T22:10:46.404Z,25.75
2023-03-17T22:13:48.841Z,24.25
2023-03-17T22:16:51.056Z,20.60
2023-03-17T22:19:53.291Z,19.42
2023-03-17T22:22:55.459Z,17.13
2023-03-17T22:25:57.688Z,13.75
2023-03-17T22:28:59.768Z,13.80
2023-03-17T22:32:02.391Z,14.40
2023-03-17T22:35:04.606Z,12.00
2023-03-17T22:38:08.727Z,13.00
2023-03-17T22:41:15.042Z,14.70
2023-03-17T22:44:17.381Z,14.48
2023-03-17T22:47:19.459Z,15.18
2023-03-17T22:50:22.041Z,14.50
2023-03-17T22:53:24.056Z,13.97
2023-03-17T22:56:26.617Z,12.38
2023-03-17T22:59:28.645Z,11.27
2023-03-17T23:02:30.821Z,11.57
2023-03-17T23:05:33.048Z,12.15
2023-03-17T23:08:36.754Z,11.50
2023-03-17T23:11:38.769Z,12.20
2023-03-17T23:14:41.211Z,11.50
2023-03-17T23:17:43.301Z,12.63
2023-03-17T23:20:45.874Z,11.80
2023-03-17T23:23:47.967Z,11.13
2023-03-17T23:26:49.958Z,12.52
2023-03-17T23:29:53.169Z,11.50
2023-03-17T23:32:55.630Z,12.33
2023-03-17T23:35:57.693Z,11.27
2023-03-17T23:39:00.675Z,11.73
2023-03-17T23:42:04.213Z,12.55
2023-03-17T23:45:06.523Z,12.00
2023-03-17T23:48:09.110Z,12.70
2023-03-17T23:51:12.581Z,13.05
2023-03-17T23:54:15.418Z,13.20
2023-03-17T23:57:17.486Z,12.82
